Time;durP1;ratioP1;P1;durP2;ratioP2;P2;SDS_P1;SDS_P2;PMS_P1;PMS_P2;Temp;Humidity;BMP_temperature;BMP_pressure;BME280_temperature;BME280_humidity;BME280_pressure;Samples;Min_cycle;Max_cycle;Signal;HPM_P1;HPM_P2
2023/06/06 00:00:34;;;;;;;8.30;3.90;;;;;;;15.98;44.57;100856.75;104798;1266;59311;-73
2023/06/06 00:03:01;;;;;;;8.30;4.40;;;;;;;15.95;44.60;100857.36;105010;1267;59328;-74
2023/06/06 00:05:29;;;;;;;7.60;4.30;;;;;;;15.93;44.62;100858.13;104877;1265;62047;-72
2023/06/06 00:07:57;;;;;;;5.90;4.20;;;;;;;15.89;44.63;100853.86;104934;1269;59340;-73
2023/06/06 00:10:25;;;;;;;8.20;4.10;;;;;;;15.84;44.79;100853.83;104946;1269;63825;-74
2023/06/06 00:12:53;;;;;;;8.60;4.40;;;;;;;15.78;45.04;100856.50;108543;1263;188015;-72
2023/06/06 00:15:20;;;;;;;8.50;4.30;;;;;;;15.77;44.94;100855.21;108856;1263;56881;-72
2023/06/06 00:17:55;;;;;;;9.20;4.30;;;;;;;15.77;44.74;100854.12;108827;1263;62241;-73
2023/06/06 00:20:23;;;;;;;11.20;4.90;;;;;;;15.77;44.69;100853.11;108874;1263;58198;-73
2023/06/06 00:22:53;;;;;;;10.30;4.20;;;;;;;15.75;44.70;100856.33;108817;1263;63746;-72
2023/06/06 00:25:20;;;;;;;8.10;4.40;;;;;;;15.72;45.00;100857.77;108783;1263;57306;-72
2023/06/06 00:27:48;;;;;;;9.40;4.70;;;;;;;15.69;45.19;100857.55;108828;1263;57383;-73
2023/06/06 00:30:16;;;;;;;8.80;4.50;;;;;;;15.66;45.11;100858.19;108835;1262;62817;-72
2023/06/06 00:32:45;;;;;;;9.00;4.40;;;;;;;15.64;45.08;100859.59;108895;1263;57425;-72
2023/06/06 00:35:12;;;;;;;11.80;4.30;;;;;;;15.61;45.12;100860.95;108901;1263;62524;-72
2023/06/06 00:37:39;;;;;;;8.80;4.60;;;;;;;15.56;45.24;100861.05;108772;1264;57420;-72
2023/06/06 00:40:09;;;;;;;8.20;4.10;;;;;;;15.51;45.34;100860.46;108847;1263;57215;-73
2023/06/06 00:42:37;;;;;;;8.40;4.50;;;;;;;15.48;45.30;100863.55;108822;1262;64167;-73
2023/06/06 00:45:05;;;;;;;9.10;4.40;;;;;;;15.46;45.22;100864.29;108779;1264;58120;-73
2023/06/06 00:47:32;;;;;;;7.90;4.60;;;;;;;15.43;45.34;100860.94;108839;1263;62497;-73
2023/06/06 01:04:24;;;;;;;7.10;4.00;;;;;;;15.25;45.68;100857.89;108922;1262;58312;-73
2023/06/06 01:06:52;;;;;;;6.70;4.20;;;;;;;15.18;45.90;100859.36;108784;1262;62438;-73
2023/06/06 01:09:19;;;;;;;8.20;4.20;;;;;;;15.15;46.15;100860.53;108813;1263;57335;-72
2023/06/06 01:12:08;;;;;;;12.00;4.80;;;;;;;15.14;46.24;100860.80;108808;1263;57245;-73
2023/06/06 01:15:00;;;;;;;7.10;4.00;;;;;;;15.15;46.04;100865.52;108860;1263;62837;-72
2023/06/06 01:17:27;;;;;;;6.90;4.20;;;;;;;15.15;46.06;100863.94;108778;1262;58126;-73
2023/06/06 01:19:56;;;;;;;6.80;4.30;;;;;;;15.13;46.25;100863.41;108742;1264;62498;-72
2023/06/06 01:22:27;;;;;;;9.50;4.00;;;;;;;15.10;46.67;100867.76;108822;1262;57446;-73
2023/06/06 01:24:55;;;;;;;8.70;4.30;;;;;;;15.07;46.79;100864.15;108708;1263;57413;-72
2023/06/06 01:27:23;;;;;;;9.50;4.10;;;;;;;15.05;46.73;100867.35;108784;1264;62820;-73
2023/06/06 01:29:51;;;;;;;8.70;4.00;;;;;;;15.05;46.53;100868.92;108813;1263;57370;-73
2023/06/06 01:32:40;;;;;;;6.10;3.90;;;;;;;15.04;46.47;100871.29;108822;1263;63044;-73
2023/06/06 01:35:31;;;;;;;7.20;4.00;;;;;;;15.04;46.60;100870.42;108731;1263;57314;-73
2023/06/06 01:38:16;;;;;;;8.40;4.70;;;;;;;15.03;46.69;100872.86;108771;1264;57270;-74
2023/06/06 01:40:44;;;;;;;9.40;4.30;;;;;;;15.00;46.95;100875.80;108799;1263;64195;-74
2023/06/06 01:43:11;;;;;;;7.20;4.60;;;;;;;14.99;46.96;100874.66;108821;1264;58149;-74
2023/06/06 01:45:39;;;;;;;8.00;4.10;;;;;;;14.99;46.91;100874.80;108740;1262;63753;-73
2023/06/06 01:48:06;;;;;;;7.00;4.00;;;;;;;15.00;46.78;100876.84;108789;1264;57313;-73
2023/06/06 01:50:34;;;;;;;7.10;4.10;;;;;;;15.01;46.68;100874.58;108713;1263;57313;-75
2023/06/06 01:53:01;;;;;;;6.80;3.80;;;;;;;15.01;46.56;100874.94;108616;1262;64137;-74
2023/06/06 01:55:29;;;;;;;9.50;3.80;;;;;;;15.02;46.62;100878.44;108789;1264;57406;-73
2023/06/06 01:57:56;;;;;;;7.30;3.90;;;;;;;15.03;46.61;100881.20;108715;1262;63745;-73
2023/06/06 02:00:24;;;;;;;8.90;3.70;;;;;;;15.02;46.68;100882.86;108650;1263;57348;-74
2023/06/06 02:02:51;;;;;;;7.60;3.60;;;;;;;15.01;46.59;100883.88;108812;1263;57452;-73
2023/06/06 02:05:20;;;;;;;6.20;3.60;;;;;;;14.99;46.63;100883.48;108756;1262;64179;-74
2023/06/06 02:07:49;;;;;;;6.00;4.00;;;;;;;15.00;46.53;100887.09;108811;1263;58256;-74
2023/06/06 02:10:17;;;;;;;5.50;3.80;;;;;;;15.01;46.59;100885.41;108756;1262;62539;-74
2023/06/06 02:12:45;;;;;;;6.90;3.70;;;;;;;15.01;46.41;100887.52;108855;1262;57377;-74
2023/06/06 02:15:13;;;;;;;9.80;3.80;;;;;;;15.01;46.38;100888.41;108757;1263;57434;-74
2023/06/06 02:17:41;;;;;;;5.20;3.20;;;;;;;15.03;46.33;100889.19;108721;1263;63469;-74
2023/06/06 02:20:10;;;;;;;5.60;3.30;;;;;;;15.04;46.30;100888.85;108812;1262;58261;-74
2023/06/06 02:22:38;;;;;;;5.70;3.70;;;;;;;15.04;46.29;100890.48;108776;1263;63756;-74
2023/06/06 02:25:07;;;;;;;6.40;3.50;;;;;;;15.04;46.31;100886.77;108744;1264;57321;-73
2023/06/06 02:27:38;;;;;;;11.20;3.30;;;;;;;15.04;46.42;100889.19;108752;1263;57393;-73
2023/06/06 02:30:07;;;;;;;6.50;3.40;;;;;;;15.04;46.40;100888.88;108811;1262;64329;-74
2023/06/06 02:32:34;;;;;;;8.10;3.40;;;;;;;15.05;46.32;100889.85;108762;1262;57388;-73
2023/06/06 02:35:05;;;;;;;6.70;3.30;;;;;;;15.06;46.36;100891.92;108809;1263;63755;-73
2023/06/06 02:37:32;;;;;;;12.90;3.70;;;;;;;15.06;46.26;100893.17;108770;1266;57328;-73
2023/06/06 02:40:10;;;;;;;4.90;3.30;;;;;;;15.05;46.32;100890.23;108833;1262;57532;-73
2023/06/06 02:42:38;;;;;;;5.80;3.00;;;;;;;15.04;46.47;100888.69;108770;1263;62858;-74
2023/06/06 02:45:07;;;;;;;6.10;3.30;;;;;;;15.05;46.46;100887.18;108690;1263;57795;-73
2023/06/06 02:47:35;;;;;;;5.90;3.10;;;;;;;15.07;46.41;100891.79;108842;1264;63722;-73
2023/06/06 02:50:03;;;;;;;6.60;3.50;;;;;;;15.10;46.34;100894.22;108718;1266;57308;-73
2023/06/06 02:52:35;;;;;;;6.30;3.00;;;;;;;15.11;46.32;100896.93;108621;1263;57494;-74
2023/06/06 02:55:04;;;;;;;6.80;2.70;;;;;;;15.13;46.25;100898.35;108772;1265;62899;-74
2023/06/06 02:57:31;;;;;;;6.70;3.00;;;;;;;15.13;46.03;100901.13;108804;1264;58106;-73
2023/06/06 02:59:59;;;;;;;8.00;3.40;;;;;;;15.11;46.21;100904.58;108759;1263;62456;-73
2023/06/06 03:02:27;;;;;;;4.60;2.80;;;;;;;15.12;46.22;100905.36;109011;1257;57372;-77
2023/06/06 03:04:55;;;;;;;9.00;2.70;;;;;;;15.17;46.03;100900.84;109080;1258;59057;-73
2023/06/06 03:07:23;;;;;;;6.10;2.60;;;;;;;15.20;46.07;100900.79;109037;1259;64223;-73
2023/06/06 03:09:51;;;;;;;6.60;2.80;;;;;;;15.23;45.92;100901.39;108956;1259;58324;-73
2023/06/06 03:12:21;;;;;;;6.70;2.70;;;;;;;15.27;45.76;100902.08;108986;1259;64052;-73
2023/06/06 03:14:49;;;;;;;8.80;2.50;;;;;;;15.32;45.71;100903.14;108982;1260;57361;-73
2023/06/06 03:17:26;;;;;;;4.60;2.20;;;;;;;15.37;45.57;100899.01;109003;1259;57273;-73
2023/06/06 03:19:53;;;;;;;5.20;2.60;;;;;;;15.40;45.43;100904.54;109009;1259;64156;-73
2023/06/06 03:22:21;;;;;;;3.60;2.00;;;;;;;15.45;45.30;100901.61;108974;1260;58173;-73
2023/06/06 03:24:49;;;;;;;7.30;2.50;;;;;;;15.51;45.24;100898.66;109007;1259;64118;-73
2023/06/06 03:27:18;;;;;;;5.30;2.30;;;;;;;15.57;45.10;100895.61;108950;1260;57378;-74
2023/06/06 03:29:46;;;;;;;5.30;2.40;;;;;;;15.64;45.12;100897.45;109021;1258;57266;-74
2023/06/06 03:32:13;;;;;;;5.30;2.70;;;;;;;15.71;45.18;100893.24;108974;1262;62803;-73
2023/06/06 03:34:41;;;;;;;3.70;2.50;;;;;;;15.78;44.93;100894.41;108971;1260;58336;-74
2023/06/06 03:37:10;;;;;;;5.70;2.60;;;;;;;15.84;44.71;100895.95;108968;1260;63864;-74
2023/06/06 03:39:39;;;;;;;5.80;2.40;;;;;;;15.90;44.90;100896.26;108995;1259;57724;-73
2023/06/06 03:42:08;;;;;;;7.00;2.10;;;;;;;15.96;44.96;100896.52;108982;1259;57455;-74
2023/06/06 03:44:36;;;;;;;5.40;2.30;;;;;;;16.03;44.88;100897.90;108944;1259;64140;-73
2023/06/06 03:47:03;;;;;;;3.80;2.30;;;;;;;16.09;44.87;100896.58;108982;1261;58190;-74
2023/06/06 03:49:36;;;;;;;4.40;2.30;;;;;;;16.15;45.05;100896.63;108953;1259;62531;-73
2023/06/06 03:52:04;;;;;;;4.30;2.40;;;;;;;16.20;44.84;100893.38;109066;1257;57296;-74
2023/06/06 03:54:36;;;;;;;5.20;2.10;;;;;;;16.30;44.84;100892.51;109084;1257;57498;-74
2023/06/06 03:57:08;;;;;;;4.10;2.00;;;;;;;16.38;44.90;100893.31;109064;1257;64152;-73
2023/06/06 03:59:35;;;;;;;5.00;2.30;;;;;;;16.46;44.68;100893.58;109039;1257;58317;-73
2023/06/06 04:02:03;;;;;;;3.20;1.90;;;;;;;16.57;44.69;100890.41;109077;1257;62453;-74
2023/06/06 04:04:31;;;;;;;5.50;2.20;;;;;;;16.67;44.64;100893.86;109082;1257;57275;-74
2023/06/06 04:06:58;;;;;;;4.50;2.20;;;;;;;16.78;44.67;100889.13;109164;1256;57378;-74
2023/06/06 04:09:26;;;;;;;4.50;2.10;;;;;;;16.89;44.51;100891.38;109120;1256;62890;-74
2023/06/06 04:11:53;;;;;;;6.00;2.40;;;;;;;17.02;44.34;100890.00;109110;1257;58172;-74
2023/06/06 04:14:22;;;;;;;4.90;1.90;;;;;;;17.14;44.31;100888.92;109052;1257;62442;-74
2023/06/06 04:16:51;;;;;;;5.00;2.30;;;;;;;17.27;44.16;100887.85;109043;1257;58156;-74
2023/06/06 04:19:19;;;;;;;3.30;1.90;;;;;;;17.39;43.89;100890.53;109062;1257;58216;-74
2023/06/06 04:21:47;;;;;;;2.60;1.80;;;;;;;17.51;43.63;100885.02;109047;1256;63654;-74
2023/06/06 04:24:14;;;;;;;5.00;2.20;;;;;;;17.65;43.28;100884.29;109140;1257;58411;-74
2023/06/06 04:26:42;;;;;;;6.50;2.00;;;;;;;17.81;43.11;100883.69;109129;1257;63939;-73
2023/06/06 04:29:13;;;;;;;3.30;1.90;;;;;;;17.95;42.84;100882.88;109108;1257;58135;-73
2023/06/06 04:31:41;;;;;;;2.70;1.70;;;;;;;18.10;42.71;100882.10;109160;1257;58031;-71
2023/06/06 04:34:12;;;;;;;4.00;1.70;;;;;;;18.26;42.42;100879.66;109049;1257;64920;-71
2023/06/06 04:36:40;;;;;;;3.90;1.70;;;;;;;18.44;42.23;100878.30;109058;1257;58136;-71
2023/06/06 04:39:09;;;;;;;3.30;1.60;;;;;;;18.63;41.80;100870.11;109037;1256;63731;-72
2023/06/06 04:41:36;;;;;;;2.90;1.80;;;;;;;18.81;41.43;100868.34;109015;1257;58244;-71
2023/06/06 04:44:06;;;;;;;5.00;1.70;;;;;;;19.00;41.20;100864.90;109130;1257;58233;-73
2023/06/06 04:46:36;;;;;;;4.40;1.70;;;;;;;19.20;40.87;100862.22;109123;1258;74934;-73
2023/06/06 04:49:03;;;;;;;3.40;1.80;;;;;;;19.39;40.36;100861.80;109048;1257;58367;-74
2023/06/06 04:51:33;;;;;;;7.10;1.80;;;;;;;19.59;39.55;100862.09;109025;1257;62433;-73
2023/06/06 04:54:02;;;;;;;4.10;1.60;;;;;;;19.81;38.66;100863.20;109075;1257;58119;-74
2023/06/06 04:56:30;;;;;;;4.40;1.70;;;;;;;20.02;38.61;100858.78;109031;1257;58062;-74
2023/06/06 04:58:57;;;;;;;5.70;1.70;;;;;;;20.22;38.00;100862.75;109106;1257;63686;-74
2023/06/06 05:01:25;;;;;;;6.70;1.90;;;;;;;20.41;37.08;100863.64;109115;1257;58203;-72
2023/06/06 05:03:54;;;;;;;4.00;1.80;;;;;;;20.58;36.18;100861.36;109113;1257;63719;-72
2023/06/06 05:06:22;;;;;;;3.10;1.80;;;;;;;20.72;35.85;100862.84;109125;1257;58076;-72
2023/06/06 05:08:49;;;;;;;4.30;1.60;;;;;;;20.86;35.94;100863.16;109138;1257;58542;-75
2023/06/06 05:11:17;;;;;;;3.90;1.60;;;;;;;20.98;35.47;100865.30;109139;1257;63639;-74
2023/06/06 05:13:45;;;;;;;4.70;1.80;;;;;;;21.07;34.98;100860.85;109164;1257;58190;-74
2023/06/06 05:16:13;;;;;;;5.50;2.20;;;;;;;21.14;34.80;100861.17;109135;1257;62600;-74
2023/06/06 05:18:41;;;;;;;6.70;1.70;;;;;;;21.20;34.89;100866.10;109127;1257;58112;-74
2023/06/06 05:21:08;;;;;;;8.30;1.90;;;;;;;21.24;34.98;100865.94;109179;1257;58043;-74
2023/06/06 05:23:36;;;;;;;3.30;1.60;;;;;;;21.30;35.06;100867.23;109150;1257;63762;-74
2023/06/06 05:26:04;;;;;;;8.30;1.90;;;;;;;21.38;35.08;100869.18;109157;1257;58219;-71
2023/06/06 05:28:31;;;;;;;8.20;1.90;;;;;;;21.46;35.44;100871.77;109145;1257;62428;-72
2023/06/06 05:31:00;;;;;;;4.40;1.60;;;;;;;21.55;34.93;100872.47;109092;1257;58523;-76
2023/06/06 05:33:30;;;;;;;6.80;1.80;;;;;;;21.63;34.54;100872.36;109140;1259;58134;-74
2023/06/06 05:35:58;;;;;;;3.90;1.70;;;;;;;21.73;34.76;100870.70;109153;1257;65015;-74
2023/06/06 05:38:25;;;;;;;7.50;1.80;;;;;;;21.85;34.77;100872.91;109153;1257;58126;-71
2023/06/06 05:40:53;;;;;;;4.30;1.90;;;;;;;21.98;34.69;100869.31;109125;1257;62449;-75
2023/06/06 05:43:20;;;;;;;7.70;1.70;;;;;;;22.15;34.40;100872.55;109161;1257;58201;-73
2023/06/06 05:45:48;;;;;;;3.00;1.60;;;;;;;22.26;33.98;100870.98;109155;1257;58012;-73
2023/06/06 05:48:15;;;;;;;5.90;1.70;;;;;;;22.35;34.45;100870.81;109147;1257;64939;-73
2023/06/06 05:50:43;;;;;;;4.90;1.80;;;;;;;22.43;34.21;100872.66;109124;1257;58205;-73
2023/06/06 05:53:11;;;;;;;5.90;1.90;;;;;;;22.52;34.27;100871.41;109180;1257;63774;-73
2023/06/06 05:55:38;;;;;;;4.20;1.70;;;;;;;22.60;33.83;100869.53;109072;1258;58479;-73
2023/06/06 05:58:07;;;;;;;3.40;1.60;;;;;;;22.67;32.88;100865.60;108945;1257;58063;-73
2023/06/06 06:00:35;;;;;;;3.70;1.60;;;;;;;22.77;33.04;100863.31;109113;1257;63731;-75
2023/06/06 06:03:03;;;;;;;4.20;1.60;;;;;;;22.89;32.96;100864.02;109115;1258;58170;-73
2023/06/06 06:05:31;;;;;;;4.70;1.50;;;;;;;22.99;32.56;100864.21;109114;1258;63856;-73
2023/06/06 06:08:00;;;;;;;3.80;1.60;;;;;;;23.06;32.42;100861.63;109022;1257;58172;-75
2023/06/06 06:10:28;;;;;;;5.00;1.60;;;;;;;23.14;32.61;100864.04;108909;1258;58073;-75
2023/06/06 06:12:56;;;;;;;4.70;1.80;;;;;;;23.22;32.86;100859.72;109125;1258;63658;-75
2023/06/06 06:15:24;;;;;;;4.60;1.70;;;;;;;23.26;32.57;100864.33;109026;1258;58213;-74
2023/06/06 06:17:51;;;;;;;7.70;1.80;;;;;;;23.31;32.48;100865.31;109007;1258;63960;-76
2023/06/06 06:20:22;;;;;;;10.50;1.80;;;;;;;23.41;32.50;100864.75;109106;1257;58115;-74
2023/06/06 06:22:49;;;;;;;4.20;1.60;;;;;;;23.54;32.10;100864.80;109078;1258;58164;-78
2023/06/06 06:25:18;;;;;;;4.40;1.60;;;;;;;23.65;31.82;100866.31;109130;1257;64938;-76
2023/06/06 06:27:46;;;;;;;4.90;1.80;;;;;;;23.73;31.64;100863.65;109085;1258;58209;-76
2023/06/06 06:30:13;;;;;;;2.70;1.70;;;;;;;23.80;31.53;100864.19;109061;1258;63669;-74
2023/06/06 06:32:43;;;;;;;8.20;2.00;;;;;;;23.83;31.28;100859.46;109080;1259;58155;-76
2023/06/06 06:35:11;;;;;;;1.90;1.10;;;;;;;23.86;30.86;100857.27;109026;1258;58080;-75
2023/06/06 06:37:39;;;;;;;3.90;1.40;;;;;;;23.90;29.93;100855.00;109022;1260;65390;-74
2023/06/06 06:40:09;;;;;;;5.50;1.30;;;;;;;23.95;29.89;100855.38;109107;1258;58153;-78
2023/06/06 06:42:42;;;;;;;8.90;1.30;;;;;;;24.05;30.08;100853.90;108980;1258;64892;-76
2023/06/06 06:45:20;;;;;;;5.20;1.50;;;;;;;24.21;29.71;100850.96;108956;1260;58149;-75
2023/06/06 06:47:48;;;;;;;10.60;1.50;;;;;;;24.37;29.49;100849.29;109115;1258;58116;-74
2023/06/06 06:50:17;;;;;;;3.70;1.30;;;;;;;24.52;29.40;100847.48;109085;1260;64903;-77
2023/06/06 06:52:48;;;;;;;2.40;1.10;;;;;;;24.67;29.76;100847.25;109130;1259;58203;-79
2023/06/06 06:55:19;;;;;;;5.70;1.40;;;;;;;24.85;29.67;100846.69;109135;1259;62984;-78
2023/06/06 06:57:50;;;;;;;6.20;1.30;;;;;;;24.98;29.28;100844.27;109077;1260;58208;-79
2023/06/06 07:00:23;;;;;;;2.50;1.30;;;;;;;25.12;29.38;100848.20;109107;1259;58077;-78
2023/06/06 07:02:57;;;;;;;5.20;1.20;;;;;;;25.29;29.35;100842.59;109030;1259;64189;-78
2023/06/06 07:05:28;;;;;;;4.60;1.40;;;;;;;25.45;28.65;100846.36;109003;1258;58495;-77
2023/06/06 07:07:59;;;;;;;4.10;1.40;;;;;;;25.56;28.56;100847.72;109032;1259;63105;-78
2023/06/06 07:10:32;;;;;;;3.20;1.50;;;;;;;25.69;28.95;100847.11;108938;1266;58177;-77
2023/06/06 07:13:02;;;;;;;2.80;1.20;;;;;;;25.84;28.54;100846.19;109080;1260;58004;-78
2023/06/06 07:15:37;;;;;;;5.80;1.60;;;;;;;25.97;27.58;100843.75;109033;1259;64968;-78
2023/06/06 07:18:09;;;;;;;6.30;1.20;;;;;;;26.10;27.29;100845.81;109007;1258;58150;-77
2023/06/06 07:20:38;;;;;;;3.70;1.30;;;;;;;26.21;26.66;100842.20;109104;1259;62501;-78
2023/06/06 07:23:09;;;;;;;2.70;1.20;;;;;;;26.32;26.91;100841.66;109137;1258;58182;-78
2023/06/06 07:25:40;;;;;;;2.90;1.30;;;;;;;26.45;27.19;100843.77;109017;1259;58127;-77
2023/06/06 07:28:13;;;;;;;3.70;1.30;;;;;;;26.60;27.27;100838.62;109054;1259;63888;-78
2023/06/06 07:30:43;;;;;;;2.50;1.20;;;;;;;26.74;26.36;100843.47;109080;1259;58168;-78
2023/06/06 07:33:13;;;;;;;2.60;1.10;;;;;;;26.84;25.08;100839.59;108854;1261;62528;-78
2023/06/06 07:35:42;;;;;;;3.90;1.30;;;;;;;26.88;24.36;100838.35;109030;1261;58175;-77
2023/06/06 07:38:13;;;;;;;3.40;1.20;;;;;;;26.90;24.46;100835.49;109142;1259;58232;-77
2023/06/06 07:40:43;;;;;;;9.60;1.40;;;;;;;26.97;24.62;100840.80;109132;1259;64869;-78
2023/06/06 07:43:15;;;;;;;4.90;1.10;;;;;;;27.06;24.42;100839.09;109001;1259;58168;-77
2023/06/06 07:45:45;;;;;;;7.90;1.40;;;;;;;27.16;24.07;100839.24;108997;1259;63984;-78
2023/06/06 07:48:15;;;;;;;3.00;1.20;;;;;;;27.22;23.76;100841.75;109040;1260;58086;-77
2023/06/06 07:58:25;;;;;;;3.40;1.20;;;;;;;27.24;23.45;100841.61;102463;1292;599753;-78
2023/06/06 08:08:28;;;;;;;3.40;1.20;;;;;;;27.53;23.67;100833.70;102689;1297;601632;-79
2023/06/06 08:10:55;;;;;;;4.50;1.10;;;;;;;27.63;23.66;100834.16;104895;1271;59546;-79
2023/06/06 08:21:22;;;;;;;3.00;1.40;;;;;;;27.89;22.98;100834.66;102423;1291;609413;-79
2023/06/06 08:23:49;;;;;;;3.00;1.40;;;;;;;27.86;23.07;100833.15;104981;1268;59331;-78
2023/06/06 08:26:15;;;;;;;5.00;1.40;;;;;;;27.83;23.48;100832.73;104866;1265;59358;-79
2023/06/06 08:28:43;;;;;;;2.70;1.30;;;;;;;27.83;23.80;100832.23;104887;1267;63283;-78
2023/06/06 08:31:14;;;;;;;4.20;1.30;;;;;;;27.90;24.20;100827.36;104878;1270;59344;-79
2023/06/06 08:33:41;;;;;;;3.30;1.40;;;;;;;28.08;24.82;100824.12;104783;1266;182064;-80
2023/06/06 08:36:08;;;;;;;6.40;2.00;;;;;;;28.34;25.73;100823.05;105190;1263;59159;-80
2023/06/06 08:38:36;;;;;;;3.30;1.30;;;;;;;28.61;25.93;100817.89;105224;1263;59274;-79
2023/06/06 08:41:02;;;;;;;3.80;1.30;;;;;;;28.82;25.99;100812.38;105325;1263;62019;-78
2023/06/06 08:43:29;;;;;;;8.50;2.00;;;;;;;28.98;26.05;100813.09;105389;1267;59235;-79
2023/06/06 08:45:58;;;;;;;14.20;1.80;;;;;;;29.04;25.89;100812.58;105219;1264;63758;-73
2023/06/06 08:48:28;;;;;;;4.00;1.50;;;;;;;29.11;24.82;100809.72;105256;1266;59542;-73
2023/06/06 08:50:58;;;;;;;2.50;1.30;;;;;;;29.26;24.46;100802.23;105133;1263;59648;-74
2023/06/06 08:53:25;;;;;;;2.60;1.40;;;;;;;29.49;24.20;100800.73;105271;1263;64380;-75
2023/06/06 08:55:56;;;;;;;6.40;1.40;;;;;;;29.63;23.55;100799.45;105656;1256;59677;-74
2023/06/06 08:58:26;;;;;;;4.20;1.20;;;;;;;29.66;23.10;100800.86;105706;1257;63883;-74
2023/06/06 09:00:53;;;;;;;2.20;1.20;;;;;;;29.62;23.16;100801.09;105399;1264;59713;-76
2023/06/06 09:03:19;;;;;;;6.90;1.50;;;;;;;29.55;23.28;100796.78;105625;1261;59568;-76
2023/06/06 09:05:47;;;;;;;3.20;1.40;;;;;;;29.50;23.40;100797.70;105588;1258;63063;-74
2023/06/06 09:08:14;;;;;;;2.70;1.40;;;;;;;29.43;23.47;100797.29;105770;1260;59590;-75
2023/06/06 09:10:41;;;;;;;6.20;1.40;;;;;;;29.35;23.32;100799.02;105694;1257;64008;-74
2023/06/06 09:13:08;;;;;;;5.30;1.60;;;;;;;29.27;23.41;100795.23;105651;1260;59560;-74
2023/06/06 09:15:35;;;;;;;3.30;1.30;;;;;;;29.21;24.11;100795.00;105732;1257;59615;-74
2023/06/06 09:18:02;;;;;;;12.10;1.70;;;;;;;29.13;24.14;100797.59;105682;1260;64296;-75
2023/06/06 09:20:29;;;;;;;4.00;1.30;;;;;;;29.07;24.10;100799.02;105706;1261;59664;-74
2023/06/06 09:22:57;;;;;;;4.10;1.40;;;;;;;29.01;24.46;100798.15;105573;1256;63992;-74
2023/06/06 09:25:26;;;;;;;6.00;1.50;;;;;;;29.03;25.02;100793.31;105505;1260;59616;-75
2023/06/06 09:28:02;;;;;;;5.70;1.40;;;;;;;29.17;25.01;100792.79;105670;1256;59641;-75
2023/06/06 09:30:31;;;;;;;2.70;1.50;;;;;;;29.36;24.85;100794.95;105508;1256;64222;-75
2023/06/06 09:33:02;;;;;;;6.30;1.60;;;;;;;29.53;24.54;100793.09;105635;1260;59744;-75
2023/06/06 09:35:41;;;;;;;8.20;1.70;;;;;;;29.62;24.42;100793.09;105669;1259;62638;-73
2023/06/06 09:38:17;;;;;;;11.30;1.70;;;;;;;29.66;24.64;100794.42;105967;1262;60121;-77
2023/06/06 09:40:47;;;;;;;10.70;1.80;;;;;;;29.67;24.42;100794.06;105360;1263;59565;-74
2023/06/06 09:43:15;;;;;;;16.70;1.70;;;;;;;29.68;24.67;100792.77;106109;1258;64423;-75
2023/06/06 09:45:51;;;;;;;3.90;1.60;;;;;;;29.67;24.70;100790.42;105797;1253;59599;-76
2023/06/06 09:48:23;;;;;;;6.60;1.50;;;;;;;29.61;24.63;100793.40;105824;1253;63744;-74
2023/06/06 09:50:50;;;;;;;4.20;1.50;;;;;;;29.54;25.10;100792.81;105960;1253;59664;-74
2023/06/06 09:53:17;;;;;;;3.10;1.50;;;;;;;29.51;25.31;100793.91;106123;1253;59733;-76
2023/06/06 09:55:44;;;;;;;4.70;1.30;;;;;;;29.45;24.78;100792.17;105919;1253;64470;-76
2023/06/06 09:58:15;;;;;;;4.30;1.60;;;;;;;29.33;24.33;100789.64;105851;1254;59611;-76
2023/06/06 10:00:43;;;;;;;2.70;1.40;;;;;;;29.18;24.75;100784.16;105835;1253;63776;-76
2023/06/06 10:03:18;;;;;;;10.00;1.60;;;;;;;29.13;25.22;100782.68;105664;1253;59638;-75
2023/06/06 10:05:48;;;;;;;2.60;1.20;;;;;;;29.32;25.18;100783.38;105683;1253;59638;-75
2023/06/06 10:08:19;;;;;;;2.00;1.40;;;;;;;29.64;24.97;100781.40;105746;1259;64440;-78
2023/06/06 10:10:48;;;;;;;3.50;1.30;;;;;;;30.00;24.52;100775.70;105756;1256;59891;-76
2023/06/06 10:13:16;;;;;;;3.50;1.40;;;;;;;30.38;24.34;100772.88;105710;1257;64387;-75
2023/06/06 10:15:42;;;;;;;4.10;1.50;;;;;;;30.78;23.92;100769.95;105833;1256;59613;-76
2023/06/06 10:18:10;;;;;;;8.40;1.40;;;;;;;31.17;23.25;100767.52;105753;1257;59632;-80
2023/06/06 10:20:37;;;;;;;2.50;1.40;;;;;;;31.51;22.54;100765.05;106012;1256;63092;-77
2023/06/06 10:23:04;;;;;;;4.60;1.40;;;;;;;31.80;21.94;100768.34;105781;1253;60200;-77
2023/06/06 10:25:31;;;;;;;3.70;1.40;;;;;;;32.06;22.00;100766.82;106175;1253;63852;-81
2023/06/06 10:28:17;;;;;;;5.90;1.50;;;;;;;32.36;21.98;100765.12;105841;1255;59570;-77
2023/06/06 10:30:50;;;;;;;3.40;1.50;;;;;;;32.69;21.62;100762.52;106338;1253;59725;-76
2023/06/06 10:33:34;;;;;;;3.30;1.30;;;;;;;32.90;20.54;100761.10;105849;1259;64495;-77
2023/06/06 10:36:03;;;;;;;2.30;1.40;;;;;;;32.89;20.06;100760.15;105919;1258;59730;-81
2023/06/06 10:38:34;;;;;;;13.50;1.80;;;;;;;32.81;20.30;100766.77;105772;1257;63773;-78
2023/06/06 10:41:00;;;;;;;5.80;1.50;;;;;;;32.68;20.13;100770.38;105812;1253;59699;-78
2023/06/06 10:43:44;;;;;;;9.40;1.50;;;;;;;32.42;20.43;100769.67;105904;1252;59686;-79
2023/06/06 10:46:11;;;;;;;;;;;;;;;32.17;20.82;100768.70;106009;1256;64398;-79
2023/06/06 10:48:38;;;;;;;4.70;1.50;;;;;;;31.96;21.12;100772.75;105790;1257;59717;-80
2023/06/06 10:51:21;;;;;;;4.30;1.40;;;;;;;31.78;21.53;100773.71;105621;1257;63920;-81
2023/06/06 10:54:13;;;;;;;4.40;1.50;;;;;;;31.61;21.68;100774.38;105814;1256;60601;-79
2023/06/06 10:56:47;;;;;;;3.80;1.50;;;;;;;31.62;21.86;100769.75;105812;1253;59660;-80
2023/06/06 10:59:15;;;;;;;2.10;1.40;;;;;;;31.66;21.37;100765.88;106104;1254;64120;-80
2023/06/06 11:01:44;;;;;;;4.10;1.60;;;;;;;31.62;21.12;100767.13;105950;1256;59568;-80
2023/06/06 11:04:19;;;;;;;6.40;1.30;;;;;;;31.48;21.17;100765.73;105909;1253;63706;-79
2023/06/06 11:06:47;;;;;;;5.00;1.50;;;;;;;31.34;21.62;100760.06;105765;1253;59619;-79
2023/06/06 11:09:18;;;;;;;2.80;1.60;;;;;;;31.28;21.97;100762.48;105738;1255;60192;-80
2023/06/06 11:11:45;;;;;;;2.50;1.50;;;;;;;31.28;21.76;100762.87;105756;1254;64304;-80
2023/06/06 11:14:11;;;;;;;4.00;1.10;;;;;;;31.43;21.36;100762.54;105656;1259;59563;-81
2023/06/06 11:16:38;;;;;;;2.90;1.40;;;;;;;31.68;21.44;100761.20;105796;1253;64598;-79
2023/06/06 11:19:16;;;;;;;12.90;2.20;;;;;;;32.03;21.72;100761.09;105812;1253;59734;-78
2023/06/06 11:21:43;;;;;;;4.70;1.60;;;;;;;32.44;20.89;100756.23;105790;1252;59525;-79
2023/06/06 11:24:10;;;;;;;5.00;1.70;;;;;;;32.73;19.97;100755.60;105783;1253;64398;-79
2023/06/06 11:26:38;;;;;;;5.40;1.60;;;;;;;32.93;19.80;100755.43;105838;1253;59614;-80
2023/06/06 11:29:07;;;;;;;3.30;1.60;;;;;;;33.15;19.24;100754.30;106114;1253;62550;-82
2023/06/06 11:31:35;;;;;;;3.30;1.50;;;;;;;33.31;19.28;100749.44;105948;1253;59640;-79
2023/06/06 11:34:06;;;;;;;4.70;1.50;;;;;;;33.48;19.03;100751.49;105808;1253;59603;-81
2023/06/06 11:36:35;;;;;;;7.50;1.60;;;;;;;33.49;18.63;100749.52;105654;1252;64436;-80
2023/06/06 11:39:03;;;;;;;5.00;1.70;;;;;;;33.32;18.38;100744.52;105827;1256;59627;-81
2023/06/06 11:41:33;;;;;;;6.60;1.60;;;;;;;33.05;18.50;100749.84;105719;1257;64197;-81
2023/06/06 11:44:00;;;;;;;3.10;1.50;;;;;;;32.94;19.66;100751.40;105880;1258;59569;-81
2023/06/06 11:46:29;;;;;;;2.60;1.70;;;;;;;33.09;19.70;100746.41;105719;1254;60971;-80
2023/06/06 11:48:57;;;;;;;5.00;1.60;;;;;;;33.27;19.82;100745.84;105616;1255;64323;-80
2023/06/06 11:51:28;;;;;;;2.20;1.60;;;;;;;33.51;19.89;100753.85;105701;1253;59528;-80
2023/06/06 11:53:55;;;;;;;4.20;1.50;;;;;;;33.68;19.25;100753.58;105917;1256;64154;-81
2023/06/06 11:56:22;;;;;;;2.80;1.50;;;;;;;33.76;18.68;100753.18;105927;1256;59659;-81
2023/06/06 11:58:49;;;;;;;3.40;1.50;;;;;;;33.83;18.14;100746.85;105823;1256;59653;-80
2023/06/06 12:01:15;;;;;;;6.60;1.60;;;;;;;33.90;18.21;100745.65;105698;1252;64424;-80
2023/06/06 12:03:42;;;;;;;8.40;1.70;;;;;;;34.00;18.58;100747.45;105744;1253;59605;-81